Private Wetterstation Sandau
Wetterdaten: Samstag, 23.02.2013
Datum Zeit Temp. A. Feuchte A. Luftdruck Regen Wind Richtung Richtung Taupunkt Windchill
23.02.2013 00:01 -4,5 C 83 % 1019,6 hPa 0,0 l/m 10,4 km/h (2 Bft) O-NO 67 -6,9 C -8,8 C
23.02.2013 00:06 -4,4 C 83 % 1019,7 hPa 0,0 l/m 4,7 km/h (1 Bft) NO 45 -6,8 C -6,4 C
23.02.2013 00:11 -4,2 C 83 % 1019,7 hPa 0,0 l/m 4,3 km/h (1 Bft) NO 45 -6,6 C -4,2 C
23.02.2013 00:16 -4,2 C 82 % 1019,7 hPa 0,0 l/m 7,2 km/h (2 Bft) NO 45 -6,8 C -7,4 C
23.02.2013 00:21 -4,1 C 82 % 1019,6 hPa 0,0 l/m 3,2 km/h (1 Bft) NO 45 -6,7 C -4,1 C
23.02.2013 00:26 -4,1 C 82 % 1019,6 hPa 0,0 l/m 3,6 km/h (1 Bft) O-NO 67 -6,7 C -4,1 C
23.02.2013 00:31 -4,1 C 82 % 1019,7 hPa 0,0 l/m 6,1 km/h (2 Bft) NO 45 -6,7 C -6,8 C
23.02.2013 00:36 -4,1 C 82 % 1019,6 hPa 0,0 l/m 1,8 km/h (1 Bft) NO 45 -6,7 C -4,1 C
23.02.2013 00:41 -4,1 C 82 % 1019,6 hPa 0,0 l/m 2,9 km/h (1 Bft) NO 45 -6,7 C -4,1 C
23.02.2013 00:46 -4,1 C 82 % 1019,6 hPa 0,0 l/m 8,6 km/h (2 Bft) O 90 -6,7 C -7,8 C
23.02.2013 00:51 -4,1 C 82 % 1019,6 hPa 0,0 l/m 7,9 km/h (2 Bft) O-NO 67 -6,7 C -7,5 C
23.02.2013 00:56 -4,1 C 82 % 1019,5 hPa 0,0 l/m 3,6 km/h (1 Bft) N-NO 22 -6,7 C -4,1 C
23.02.2013 01:01 -4,1 C 82 % 1019,5 hPa 0,0 l/m 9,0 km/h (2 Bft) NO 45 -6,7 C -7,9 C
23.02.2013 01:06 -4,1 C 82 % 1019,5 hPa 0,0 l/m 3,2 km/h (1 Bft) N-NO 22 -6,7 C -4,1 C
23.02.2013 01:11 -4,1 C 82 % 1019,4 hPa 0,0 l/m 7,9 km/h (2 Bft) O-NO 67 -6,7 C -7,5 C
23.02.2013 01:16 -4,1 C 82 % 1019,5 hPa 0,0 l/m 2,5 km/h (1 Bft) NO 45 -6,7 C -4,1 C
23.02.2013 01:21 -4,1 C 82 % 1019,3 hPa 0,0 l/m 2,5 km/h (1 Bft) NO 45 -6,7 C -4,1 C
23.02.2013 01:26 -4,1 C 82 % 1019,3 hPa 0,0 l/m 12,6 km/h (3 Bft) O-NO 67 -6,7 C -8,9 C
23.02.2013 01:31 -4,1 C 82 % 1019,5 hPa 0,0 l/m 4,7 km/h (1 Bft) O-NO 67 -6,7 C -6,1 C
23.02.2013 01:36 -4,1 C 82 % 1019,3 hPa 0,0 l/m 13,3 km/h (3 Bft) O-NO 67 -6,7 C -9,1 C
23.02.2013 01:41 -4,1 C 82 % 1019,4 hPa 0,0 l/m 9,7 km/h (2 Bft) NO 45 -6,7 C -8,1 C
23.02.2013 01:46 -4,1 C 82 % 1019,5 hPa 0,0 l/m 5,4 km/h (1 Bft) N-NO 22 -6,7 C -6,4 C
23.02.2013 01:51 -4,1 C 82 % 1019,2 hPa 0,0 l/m 10,1 km/h (2 Bft) NO 45 -6,7 C -8,2 C
23.02.2013 01:56 -4,1 C 82 % 1019,3 hPa 0,0 l/m 8,6 km/h (2 Bft) NO 45 -6,7 C -7,8 C
23.02.2013 02:01 -4,1 C 82 % 1019,3 hPa 0,0 l/m 4,0 km/h (1 Bft) NO 45 -6,7 C -4,1 C
23.02.2013 02:06 -4,1 C 82 % 1019,3 hPa 0,0 l/m 16,9 km/h (3 Bft) O-NO 67 -6,7 C -9,9 C
23.02.2013 02:11 -4,1 C 82 % 1019,3 hPa 0,0 l/m 8,6 km/h (2 Bft) O-NO 67 -6,7 C -7,8 C
23.02.2013 02:16 -4,1 C 82 % 1019,3 hPa 0,0 l/m 11,2 km/h (2 Bft) NO 45 -6,7 C -8,6 C
23.02.2013 02:21 -4,2 C 82 % 1019,1 hPa 0,0 l/m 18,0 km/h (3 Bft) NO 45 -6,8 C -10,2 C
23.02.2013 02:26 -4,2 C 82 % 1019,2 hPa 0,0 l/m 7,6 km/h (2 Bft) O 90 -6,8 C -7,5 C
23.02.2013 02:31 -4,4 C 82 % 1019,1 hPa 0,0 l/m 7,6 km/h (2 Bft) O-NO 67 -7,0 C -7,8 C
23.02.2013 02:36 -4,4 C 82 % 1019,1 hPa 0,0 l/m 10,8 km/h (2 Bft) O-NO 67 -7,0 C -8,8 C
23.02.2013 02:41 -4,5 C 82 % 1019,0 hPa 0,0 l/m 12,6 km/h (3 Bft) NO 45 -7,1 C -9,4 C
23.02.2013 02:46 -4,5 C 82 % 1019,1 hPa 0,0 l/m 10,1 km/h (2 Bft) O 90 -7,1 C -8,7 C
23.02.2013 02:51 -4,6 C 82 % 1019,2 hPa 0,0 l/m 17,3 km/h (3 Bft) O-NO 67 -7,2 C -10,6 C
23.02.2013 02:56 -4,6 C 82 % 1018,8 hPa 0,0 l/m 7,2 km/h (2 Bft) O-NO 67 -7,2 C -7,8 C
23.02.2013 03:01 -4,5 C 82 % 1018,9 hPa 0,0 l/m 9,4 km/h (2 Bft) NO 45 -7,1 C -8,5 C
23.02.2013 03:06 -4,5 C 82 % 1018,8 hPa 0,0 l/m 17,3 km/h (3 Bft) O-NO 67 -7,1 C -10,4 C
23.02.2013 03:11 -4,5 C 82 % 1018,9 hPa 0,0 l/m 9,0 km/h (2 Bft) O-SO 112 -7,1 C -8,4 C
23.02.2013 03:16 -4,4 C 82 % 1018,9 hPa 0,0 l/m 7,6 km/h (2 Bft) O-NO 67 -7,0 C -7,8 C
23.02.2013 03:21 -4,4 C 82 % 1018,7 hPa 0,0 l/m 5,0 km/h (1 Bft) O-NO 67 -7,0 C -6,6 C
23.02.2013 03:26 -4,4 C 82 % 1018,8 hPa 0,0 l/m 6,8 km/h (2 Bft) N-NO 22 -7,0 C -7,4 C
23.02.2013 03:31 -4,4 C 82 % 1018,6 hPa 0,0 l/m 6,1 km/h (2 Bft) SO 135 -7,0 C -7,1 C
23.02.2013 03:36 -4,4 C 82 % 1018,8 hPa 0,0 l/m 7,2 km/h (2 Bft) NO 45 -7,0 C -7,6 C
23.02.2013 03:41 -4,3 C 82 % 1018,5 hPa 0,0 l/m 11,9 km/h (2 Bft) NO 45 -6,9 C -9,0 C
23.02.2013 03:46 -4,2 C 82 % 1018,5 hPa 0,0 l/m 9,7 km/h (2 Bft) O 90 -6,8 C -8,2 C
23.02.2013 03:51 -4,2 C 82 % 1018,5 hPa 0,0 l/m 7,6 km/h (2 Bft) O 90 -6,8 C -7,5 C
23.02.2013 03:56 -4,2 C 82 % 1018,5 hPa 0,0 l/m 14,4 km/h (3 Bft) O-NO 67 -6,8 C -9,5 C
23.02.2013 04:01 -4,2 C 82 % 1018,5 hPa 0,0 l/m 4,7 km/h (1 Bft) N 360 -6,8 C -6,2 C
23.02.2013 04:06 -4,2 C 81 % 1018,4 hPa 0,0 l/m 8,3 km/h (2 Bft) O-NO 67 -7,0 C -7,8 C
23.02.2013 04:11 -4,2 C 81 % 1018,5 hPa 0,0 l/m 15,8 km/h (3 Bft) O-NO 67 -7,0 C -9,8 C
23.02.2013 04:16 -4,2 C 81 % 1018,4 hPa 0,0 l/m 2,2 km/h (1 Bft) O-NO 67 -7,0 C -4,2 C
23.02.2013 04:21 -4,2 C 81 % 1018,3 hPa 0,0 l/m 10,4 km/h (2 Bft) O-NO 67 -7,0 C -8,5 C
23.02.2013 04:26 -4,2 C 81 % 1018,3 hPa 0,0 l/m 6,5 km/h (2 Bft) NO 45 -7,0 C -7,1 C
23.02.2013 04:31 -4,2 C 81 % 1018,5 hPa 0,0 l/m 15,5 km/h (3 Bft) NO 45 -7,0 C -9,7 C
23.02.2013 04:36 -4,2 C 81 % 1018,4 hPa 0,0 l/m 13,7 km/h (3 Bft) O 90 -7,0 C -9,3 C
23.02.2013 04:41 -4,2 C 81 % 1018,3 hPa 0,0 l/m 14,8 km/h (3 Bft) NO 45 -7,0 C -9,6 C
23.02.2013 04:46 -4,2 C 81 % 1018,2 hPa 0,0 l/m 16,2 km/h (3 Bft) O-NO 67 -7,0 C -9,8 C
23.02.2013 04:51 -4,2 C 81 % 1018,2 hPa 0,0 l/m 9,7 km/h (2 Bft) O-SO 112 -7,0 C -8,2 C
23.02.2013 04:56 -4,2 C 81 % 1018,2 hPa 0,0 l/m 13,0 km/h (3 Bft) O-NO 67 -7,0 C -9,1 C
23.02.2013 05:01 -4,2 C 81 % 1018,3 hPa 0,0 l/m 18,0 km/h (3 Bft) O-NO 67 -7,0 C -10,2 C
23.02.2013 05:06 -4,2 C 81 % 1018,2 hPa 0,0 l/m 6,1 km/h (2 Bft) O-SO 112 -7,0 C -6,9 C
23.02.2013 05:11 -4,2 C 81 % 1018,3 hPa 0,0 l/m 14,8 km/h (3 Bft) O-NO 67 -7,0 C -9,6 C
23.02.2013 05:16 -4,2 C 81 % 1018,3 hPa 0,0 l/m 7,2 km/h (2 Bft) NO 45 -7,0 C -7,4 C
23.02.2013 05:21 -4,2 C 81 % 1018,5 hPa 0,0 l/m 9,7 km/h (2 Bft) SO 135 -7,0 C -8,2 C
23.02.2013 05:26 -4,2 C 81 % 1018,3 hPa 0,0 l/m 5,0 km/h (1 Bft) O-NO 67 -7,0 C -6,4 C
23.02.2013 05:31 -4,2 C 81 % 1018,2 hPa 0,0 l/m 8,3 km/h (2 Bft) O-NO 67 -7,0 C -7,8 C
23.02.2013 05:36 -4,2 C 81 % 1018,4 hPa 0,0 l/m 7,9 km/h (2 Bft) NO 45 -7,0 C -7,6 C
23.02.2013 05:41 -4,2 C 81 % 1018,3 hPa 0,0 l/m 17,3 km/h (3 Bft) O-NO 67 -7,0 C -10,1 C
23.02.2013 05:46 -4,2 C 81 % 1018,3 hPa 0,0 l/m 19,1 km/h (3 Bft) NO 45 -7,0 C -10,4 C
23.02.2013 05:51 -4,2 C 81 % 1018,5 hPa 0,0 l/m 14,0 km/h (3 Bft) O 90 -7,0 C -9,4 C
23.02.2013 05:56 -4,2 C 81 % 1018,6 hPa 0,0 l/m 6,1 km/h (2 Bft) O-SO 112 -7,0 C -6,9 C
23.02.2013 06:01 -4,1 C 81 % 1018,5 hPa 0,0 l/m 12,6 km/h (3 Bft) O 90 -6,9 C -8,9 C
23.02.2013 06:06 -4,1 C 81 % 1018,5 hPa 0,0 l/m 3,6 km/h (1 Bft) O-NO 67 -6,9 C -4,1 C
23.02.2013 06:11 -4,1 C 81 % 1018,3 hPa 0,0 l/m 12,6 km/h (3 Bft) NO 45 -6,9 C -8,9 C
23.02.2013 06:16 -4,1 C 81 % 1018,3 hPa 0,0 l/m 10,1 km/h (2 Bft) O-NO 67 -6,9 C -8,2 C
23.02.2013 06:21 -4,1 C 81 % 1018,4 hPa 0,0 l/m 4,0 km/h (1 Bft) O-NO 67 -6,9 C -4,1 C
23.02.2013 06:26 -4,1 C 81 % 1018,2 hPa 0,0 l/m 4,7 km/h (1 Bft) N-NO 22 -6,9 C -6,1 C
23.02.2013 06:31 -4,1 C 81 % 1018,5 hPa 0,0 l/m 10,8 km/h (2 Bft) O-NO 67 -6,9 C -8,4 C
23.02.2013 06:36 -4,1 C 81 % 1018,5 hPa 0,0 l/m 4,7 km/h (1 Bft) O-NO 67 -6,9 C -6,1 C
23.02.2013 06:41 -4,1 C 81 % 1018,5 hPa 0,0 l/m 4,3 km/h (1 Bft) NO 45 -6,9 C -4,1 C
23.02.2013 06:46 -4,1 C 81 % 1018,4 hPa 0,0 l/m 7,2 km/h (2 Bft) O-NO 67 -6,9 C -7,3 C
23.02.2013 06:51 -4,1 C 81 % 1018,4 hPa 0,0 l/m 11,9 km/h (2 Bft) O-NO 67 -6,9 C -8,7 C
23.02.2013 06:56 -4,1 C 81 % 1018,6 hPa 0,0 l/m 14,8 km/h (3 Bft) O-NO 67 -6,9 C -9,4 C
23.02.2013 07:01 -4,1 C 81 % 1018,6 hPa 0,0 l/m 9,4 km/h (2 Bft) NO 45 -6,9 C -8,0 C
23.02.2013 07:06 -4,1 C 81 % 1018,6 hPa 0,0 l/m 4,7 km/h (1 Bft) NO 45 -6,9 C -6,1 C
23.02.2013 07:11 -4,1 C 81 % 1018,7 hPa 0,0 l/m 9,4 km/h (2 Bft) O-NO 67 -6,9 C -8,0 C
23.02.2013 07:16 -4,1 C 81 % 1018,6 hPa 0,0 l/m 4,7 km/h (1 Bft) O-NO 67 -6,9 C -6,1 C
23.02.2013 07:21 -4,1 C 81 % 1018,6 hPa 0,0 l/m 10,8 km/h (2 Bft) NO 45 -6,9 C -8,4 C
23.02.2013 07:26 -4,1 C 81 % 1018,6 hPa 0,0 l/m 12,2 km/h (2 Bft) NO 45 -6,9 C -8,8 C
23.02.2013 07:31 -4,0 C 81 % 1018,8 hPa 0,0 l/m 5,4 km/h (1 Bft) NO 45 -6,8 C -6,3 C
23.02.2013 07:36 -4,1 C 81 % 1018,8 hPa 0,0 l/m 13,3 km/h (3 Bft) O-NO 67 -6,9 C -9,1 C
23.02.2013 07:41 -3,9 C 81 % 1018,9 hPa 0,0 l/m 7,6 km/h (2 Bft) NO 45 -6,7 C -7,2 C
23.02.2013 07:46 -3,9 C 82 % 1018,7 hPa 0,0 l/m 3,2 km/h (1 Bft) NO 45 -6,5 C -3,9 C
23.02.2013 07:51 -3,9 C 82 % 1018,7 hPa 0,0 l/m 15,1 km/h (3 Bft) O-NO 67 -6,5 C -9,2 C
23.02.2013 07:56 -3,9 C 82 % 1018,7 hPa 0,0 l/m 4,7 km/h (1 Bft) NO 45 -6,5 C -5,8 C
23.02.2013 08:01 -3,9 C 82 % 1018,5 hPa 0,0 l/m 8,3 km/h (2 Bft) N-NO 22 -6,5 C -7,4 C
23.02.2013 08:06 -3,9 C 82 % 1018,6 hPa 0,0 l/m 18,4 km/h (3 Bft) NO 45 -6,5 C -9,9 C
23.02.2013 08:11 -3,9 C 82 % 1018,6 hPa 0,0 l/m 5,8 km/h (2 Bft) O 90 -6,5 C -6,4 C
23.02.2013 08:16 -3,9 C 83 % 1018,5 hPa 0,0 l/m 11,5 km/h (2 Bft) NO 45 -6,4 C -8,4 C
23.02.2013 08:21 -3,9 C 83 % 1018,4 hPa 0,0 l/m 12,2 km/h (2 Bft) O 90 -6,4 C -8,6 C
23.02.2013 08:26 -3,8 C 83 % 1018,4 hPa 0,0 l/m 7,9 km/h (2 Bft) O-NO 67 -6,3 C -7,2 C
23.02.2013 08:31 -3,7 C 83 % 1018,2 hPa 0,0 l/m 5,8 km/h (2 Bft) O-NO 67 -6,2 C -6,2 C
23.02.2013 08:36 -3,7 C 82 % 1018,2 hPa 0,0 l/m 12,2 km/h (2 Bft) O-NO 67 -6,3 C -8,3 C
23.02.2013 08:41 -3,7 C 82 % 1018,1 hPa 0,0 l/m 9,7 km/h (2 Bft) O-NO 67 -6,3 C -7,6 C
23.02.2013 08:46 -3,6 C 81 % 1018,1 hPa 0,0 l/m 10,8 km/h (2 Bft) NO 45 -6,4 C -7,8 C
23.02.2013 08:51 -3,6 C 82 % 1017,9 hPa 0,0 l/m 23,4 km/h (4 Bft) NO 45 -6,2 C -10,3 C
23.02.2013 08:56 -3,6 C 81 % 1018,0 hPa 0,0 l/m 15,1 km/h (3 Bft) O-NO 67 -6,4 C -8,9 C
23.02.2013 09:01 -3,7 C 81 % 1017,9 hPa 0,0 l/m 15,5 km/h (3 Bft) NO 45 -6,5 C -9,1 C
23.02.2013 09:06 -3,6 C 81 % 1017,8 hPa 0,0 l/m 19,1 km/h (3 Bft) O-NO 67 -6,4 C -9,6 C
23.02.2013 09:11 -3,5 C 81 % 1017,8 hPa 0,0 l/m 13,7 km/h (3 Bft) O-NO 67 -6,3 C -8,4 C
23.02.2013 09:16 -3,4 C 81 % 1017,8 hPa 0,0 l/m 20,2 km/h (4 Bft) NO 45 -6,2 C -9,6 C
23.02.2013 09:21 -3,3 C 81 % 1017,7 hPa 0,0 l/m 11,9 km/h (2 Bft) NO 45 -6,1 C -7,8 C
23.02.2013 09:26 -3,2 C 81 % 1017,7 hPa 0,0 l/m 9,4 km/h (2 Bft) NO 45 -6,0 C -7,0 C
23.02.2013 09:31 -3,1 C 81 % 1017,8 hPa 0,0 l/m 14,8 km/h (3 Bft) N-NO 22 -5,9 C -8,2 C
23.02.2013 09:36 -3,1 C 80 % 1017,8 hPa 0,0 l/m 16,6 km/h (3 Bft) O-SO 112 -6,0 C -8,6 C
23.02.2013 09:41 -3,0 C 80 % 1017,8 hPa 0,0 l/m 5,0 km/h (1 Bft) NO 45 -6,0 C -5,0 C
23.02.2013 09:46 -2,9 C 81 % 1017,9 hPa 0,0 l/m 5,8 km/h (2 Bft) O-NO 67 -5,7 C -5,3 C
23.02.2013 09:51 -2,8 C 81 % 1017,8 hPa 0,0 l/m 7,9 km/h (2 Bft) O 90 -5,6 C -6,0 C
23.02.2013 09:56 -2,7 C 81 % 1017,8 hPa 0,0 l/m 5,0 km/h (1 Bft) O-NO 67 -5,5 C -4,7 C
23.02.2013 10:01 -2,7 C 81 % 1017,9 hPa 0,0 l/m 20,9 km/h (4 Bft) O-NO 67 -5,5 C -8,8 C
23.02.2013 10:06 -2,7 C 81 % 1017,9 hPa 0,0 l/m 20,9 km/h (4 Bft) NO 45 -5,5 C -8,8 C
23.02.2013 10:11 -2,7 C 81 % 1017,9 hPa 0,0 l/m 20,2 km/h (4 Bft) NO 45 -5,5 C -8,7 C
23.02.2013 10:16 -2,7 C 80 % 1017,8 hPa 0,0 l/m 11,5 km/h (2 Bft) O 90 -5,7 C -6,9 C
23.02.2013 10:21 -2,7 C 80 % 1017,8 hPa 0,0 l/m 2,2 km/h (1 Bft) NO 45 -5,7 C -2,7 C
23.02.2013 10:26 -2,7 C 80 % 1017,6 hPa 0,0 l/m 19,8 km/h (3 Bft) NO 45 -5,7 C -8,6 C
23.02.2013 10:31 -2,7 C 80 % 1017,8 hPa 0,0 l/m 20,5 km/h (4 Bft) O-NO 67 -5,7 C -8,7 C
23.02.2013 10:36 -2,6 C 81 % 1017,8 hPa 0,0 l/m 4,7 km/h (1 Bft) NO 45 -5,4 C -4,4 C
23.02.2013 10:41 -2,6 C 80 % 1017,7 hPa 0,0 l/m 8,3 km/h (2 Bft) O-NO 67 -5,6 C -5,9 C
23.02.2013 10:46 -2,6 C 80 % 1017,6 hPa 0,0 l/m 6,8 km/h (2 Bft) O 90 -5,6 C -5,3 C
23.02.2013 10:51 -2,5 C 80 % 1017,5 hPa 0,0 l/m 3,2 km/h (1 Bft) NO 45 -5,5 C -2,5 C
23.02.2013 10:56 -2,4 C 80 % 1017,5 hPa 0,0 l/m 22,3 km/h (4 Bft) O-NO 67 -5,4 C -8,6 C
23.02.2013 11:01 -2,4 C 80 % 1017,7 hPa 0,0 l/m 7,2 km/h (2 Bft) NO 45 -5,4 C -5,3 C
23.02.2013 11:06 -2,4 C 80 % 1017,5 hPa 0,0 l/m 10,1 km/h (2 Bft) NO 45 -5,4 C -6,2 C
23.02.2013 11:11 -2,4 C 80 % 1017,3 hPa 0,0 l/m 8,3 km/h (2 Bft) N 360 -5,4 C -5,7 C
23.02.2013 11:16 -2,4 C 80 % 1017,5 hPa 0,0 l/m 14,4 km/h (3 Bft) NO 45 -5,4 C -7,3 C
23.02.2013 11:21 -2,2 C 80 % 1017,4 hPa 0,0 l/m 10,1 km/h (2 Bft) O-NO 67 -5,2 C -6,0 C
23.02.2013 11:26 -2,2 C 80 % 1017,5 hPa 0,0 l/m 9,7 km/h (2 Bft) NO 45 -5,2 C -5,9 C
23.02.2013 11:31 -2,2 C 80 % 1017,2 hPa 0,0 l/m 6,5 km/h (2 Bft) O-NO 67 -5,2 C -4,8 C
23.02.2013 11:36 -2,2 C 80 % 1017,1 hPa 0,0 l/m 10,1 km/h (2 Bft) O-NO 67 -5,2 C -6,0 C
23.02.2013 11:41 -2,1 C 80 % 1017,3 hPa 0,0 l/m 18,0 km/h (3 Bft) O-NO 67 -5,1 C -7,6 C
23.02.2013 11:46 -2,1 C 80 % 1017,0 hPa 0,0 l/m 12,2 km/h (2 Bft) NO 45 -5,1 C -6,4 C
23.02.2013 11:51 -1,9 C 80 % 1017,1 hPa 0,0 l/m 10,1 km/h (2 Bft) NO 45 -4,9 C -5,6 C
23.02.2013 11:56 -1,8 C 80 % 1017,1 hPa 0,0 l/m 3,6 km/h (1 Bft) N-NO 22 -4,8 C -1,8 C
23.02.2013 12:01 -1,7 C 80 % 1017,0 hPa 0,0 l/m 16,6 km/h (3 Bft) O-NO 67 -4,7 C -6,8 C
23.02.2013 12:06 -1,7 C 79 % 1016,9 hPa 0,0 l/m 11,2 km/h (2 Bft) O 90 -4,8 C -5,7 C
23.02.2013 12:11 -1,6 C 79 % 1016,9 hPa 0,0 l/m 5,4 km/h (1 Bft) SO 135 -4,8 C -3,6 C
23.02.2013 12:16 -1,5 C 79 % 1016,7 hPa 0,0 l/m 4,0 km/h (1 Bft) NO 45 -4,7 C -1,5 C
23.02.2013 12:21 -1,5 C 79 % 1016,7 hPa 0,0 l/m 14,0 km/h (3 Bft) NO 45 -4,7 C -6,1 C
23.02.2013 12:26 -1,5 C 79 % 1016,6 hPa 0,0 l/m 3,6 km/h (1 Bft) O-SO 112 -4,7 C -1,5 C
23.02.2013 12:31 -1,4 C 79 % 1016,6 hPa 0,0 l/m 12,2 km/h (2 Bft) NO 45 -4,6 C -5,5 C
23.02.2013 12:36 -1,4 C 79 % 1016,6 hPa 0,0 l/m 25,9 km/h (4 Bft) O-NO 67 -4,6 C -7,8 C
23.02.2013 12:41 -1,4 C 79 % 1016,6 hPa 0,0 l/m 13,3 km/h (3 Bft) O-NO 67 -4,6 C -5,8 C
23.02.2013 12:46 -1,3 C 80 % 1016,6 hPa 0,0 l/m 6,1 km/h (2 Bft) O-SO 112 -4,3 C -3,6 C
23.02.2013 12:51 -1,2 C 80 % 1016,4 hPa 0,0 l/m 11,2 km/h (2 Bft) O-NO 67 -4,2 C -5,1 C
23.02.2013 12:56 -1,1 C 80 % 1016,3 hPa 0,0 l/m 7,6 km/h (2 Bft) O 90 -4,1 C -3,9 C
23.02.2013 13:01 -1,0 C 79 % 1016,3 hPa 0,0 l/m 4,0 km/h (1 Bft) O-NO 67 -4,2 C -1,0 C
23.02.2013 13:06 -1,0 C 79 % 1016,2 hPa 0,0 l/m 7,6 km/h (2 Bft) O-NO 67 -4,2 C -3,8 C
23.02.2013 13:11 -0,9 C 79 % 1016,3 hPa 0,0 l/m 12,2 km/h (2 Bft) O-NO 67 -4,1 C -4,9 C
23.02.2013 13:16 -0,9 C 79 % 1016,3 hPa 0,0 l/m 10,8 km/h (2 Bft) NO 45 -4,1 C -4,6 C
23.02.2013 13:21 -1,0 C 80 % 1016,3 hPa 0,0 l/m 13,7 km/h (3 Bft) NO 45 -4,0 C -5,4 C
23.02.2013 13:26 -1,0 C 80 % 1016,3 hPa 0,0 l/m 6,1 km/h (2 Bft) O-NO 67 -4,0 C -3,2 C
23.02.2013 13:31 -0,9 C 80 % 1016,3 hPa 0,0 l/m 17,3 km/h (3 Bft) O-NO 67 -3,9 C -5,9 C
23.02.2013 13:36 -0,9 C 81 % 1016,3 hPa 0,0 l/m 13,7 km/h (3 Bft) NO 45 -3,7 C -5,3 C
23.02.2013 13:41 -1,0 C 81 % 1016,3 hPa 0,0 l/m 7,9 km/h (2 Bft) NO 45 -3,8 C -3,9 C
23.02.2013 13:46 -0,9 C 81 % 1016,2 hPa 0,0 l/m 9,7 km/h (2 Bft) NO 45 -3,7 C -4,3 C
23.02.2013 13:51 -0,9 C 81 % 1016,2 hPa 0,0 l/m 9,4 km/h (2 Bft) NO 45 -3,7 C -4,2 C
23.02.2013 13:56 -0,9 C 81 % 1016,1 hPa 0,0 l/m 11,9 km/h (2 Bft) NO 45 -3,7 C -4,9 C
23.02.2013 14:01 -0,8 C 82 % 1016,1 hPa 0,0 l/m 15,5 km/h (3 Bft) NO 45 -3,5 C -5,5 C
23.02.2013 14:06 -0,7 C 82 % 1016,0 hPa 0,0 l/m 7,9 km/h (2 Bft) O-SO 112 -3,4 C -3,5 C
23.02.2013 14:11 -0,7 C 82 % 1015,9 hPa 0,0 l/m 14,8 km/h (3 Bft) NO 45 -3,4 C -5,2 C
23.02.2013 14:16 -0,6 C 82 % 1015,9 hPa 0,0 l/m 11,9 km/h (2 Bft) O-NO 67 -3,3 C -4,5 C
23.02.2013 14:21 -0,6 C 82 % 1015,9 hPa 0,0 l/m 6,5 km/h (2 Bft) NO 45 -3,3 C -2,9 C
23.02.2013 14:26 -0,6 C 82 % 1016,0 hPa 0,0 l/m 27,0 km/h (4 Bft) O-NO 67 -3,3 C -6,9 C
23.02.2013 14:31 -0,5 C 82 % 1015,9 hPa 0,0 l/m 19,8 km/h (3 Bft) O-NO 67 -3,2 C -5,8 C
23.02.2013 14:36 -0,5 C 82 % 1015,7 hPa 0,0 l/m 7,6 km/h (2 Bft) SO 135 -3,2 C -3,2 C
23.02.2013 14:41 -0,5 C 82 % 1015,7 hPa 0,0 l/m 15,8 km/h (3 Bft) NO 45 -3,2 C -5,2 C
23.02.2013 14:46 -0,4 C 82 % 1015,7 hPa 0,0 l/m 4,3 km/h (1 Bft) NO 45 -3,1 C -0,4 C
23.02.2013 14:51 -0,5 C 82 % 1016,0 hPa 0,0 l/m 5,0 km/h (1 Bft) O-NO 67 -3,2 C -2,2 C
23.02.2013 14:56 -0,5 C 83 % 1015,9 hPa 0,0 l/m 13,7 km/h (3 Bft) NO 45 -3,0 C -4,8 C
23.02.2013 15:01 -0,5 C 82 % 1015,8 hPa 0,0 l/m 14,8 km/h (3 Bft) O-NO 67 -3,2 C -5,0 C
23.02.2013 15:06 -0,5 C 82 % 1015,8 hPa 0,0 l/m 4,0 km/h (1 Bft) O-NO 67 -3,2 C -0,5 C
23.02.2013 15:11 -0,5 C 82 % 1015,7 hPa 0,0 l/m 10,1 km/h (2 Bft) O 90 -3,2 C -3,9 C
23.02.2013 15:16 -0,4 C 82 % 1015,6 hPa 0,0 l/m 14,8 km/h (3 Bft) NO 45 -3,1 C -4,9 C
23.02.2013 15:21 -0,4 C 82 % 1015,6 hPa 0,0 l/m 10,1 km/h (2 Bft) NO 45 -3,1 C -3,8 C
23.02.2013 15:26 -0,3 C 82 % 1015,6 hPa 0,0 l/m 8,3 km/h (2 Bft) O-NO 67 -3,0 C -3,2 C
23.02.2013 15:31 -0,2 C 82 % 1015,7 hPa 0,0 l/m 9,7 km/h (2 Bft) NO 45 -2,9 C -3,5 C
23.02.2013 15:36 -0,2 C 82 % 1015,6 hPa 0,0 l/m 10,4 km/h (2 Bft) O-NO 67 -2,9 C -3,7 C
23.02.2013 15:41 -0,2 C 82 % 1015,6 hPa 0,0 l/m 4,7 km/h (1 Bft) O-NO 67 -2,9 C -1,7 C
23.02.2013 15:46 -0,2 C 82 % 1015,6 hPa 0,0 l/m 4,0 km/h (1 Bft) NO 45 -2,9 C -0,2 C
23.02.2013 15:51 -0,2 C 82 % 1015,6 hPa 0,0 l/m 12,6 km/h (3 Bft) SO 135 -2,9 C -4,2 C
23.02.2013 15:56 -0,1 C 82 % 1015,6 hPa 0,0 l/m 11,2 km/h (2 Bft) O-NO 67 -2,8 C -3,7 C
23.02.2013 16:01 -0,1 C 83 % 1015,7 hPa 0,0 l/m 9,7 km/h (2 Bft) NO 45 -2,6 C -3,4 C
23.02.2013 16:06 -0,1 C 83 % 1015,7 hPa 0,0 l/m 6,1 km/h (2 Bft) O-NO 67 -2,6 C -2,2 C
23.02.2013 16:11 -0,1 C 83 % 1015,6 hPa 0,0 l/m 18,0 km/h (3 Bft) O 90 -2,6 C -5,1 C
23.02.2013 16:16 -0,1 C 83 % 1015,6 hPa 0,0 l/m 15,5 km/h (3 Bft) O-NO 67 -2,6 C -4,6 C
23.02.2013 16:21 -0,1 C 83 % 1015,7 hPa 0,0 l/m 16,2 km/h (3 Bft) NO 45 -2,6 C -4,8 C
23.02.2013 16:26 -0,1 C 83 % 1015,6 hPa 0,0 l/m 4,0 km/h (1 Bft) NO 45 -2,6 C -0,1 C
23.02.2013 16:31 -0,1 C 83 % 1015,6 hPa 0,0 l/m 11,9 km/h (2 Bft) O-NO 67 -2,6 C -3,9 C
23.02.2013 16:36 -0,1 C 83 % 1015,6 hPa 0,0 l/m 15,1 km/h (3 Bft) O-NO 67 -2,6 C -4,6 C
23.02.2013 16:41 -0,1 C 84 % 1015,4 hPa 0,0 l/m 11,2 km/h (2 Bft) O-SO 112 -2,5 C -3,7 C
23.02.2013 16:46 -0,1 C 84 % 1015,4 hPa 0,0 l/m 14,4 km/h (3 Bft) NO 45 -2,5 C -4,4 C
23.02.2013 16:51 -0,1 C 84 % 1015,4 hPa 0,0 l/m 14,4 km/h (3 Bft) NO 45 -2,5 C -4,4 C
23.02.2013 16:56 -0,1 C 84 % 1015,4 hPa 0,0 l/m 17,6 km/h (3 Bft) NO 45 -2,5 C -5,0 C
23.02.2013 17:01 -0,1 C 84 % 1015,3 hPa 0,0 l/m 8,3 km/h (2 Bft) NO 45 -2,5 C -2,9 C
23.02.2013 17:06 -0,1 C 84 % 1015,4 hPa 0,0 l/m 10,1 km/h (2 Bft) O-NO 67 -2,5 C -3,5 C
23.02.2013 17:11 0,0 C 84 % 1015,2 hPa 0,0 l/m 14,4 km/h (3 Bft) O-NO 67 -2,4 C -4,3 C
23.02.2013 17:16 0,1 C 84 % 1015,3 hPa 0,0 l/m 15,8 km/h (3 Bft) NO 45 -2,3 C -4,4 C
23.02.2013 17:21 0,1 C 84 % 1015,0 hPa 0,0 l/m 14,8 km/h (3 Bft) N 360 -2,3 C -4,3 C
23.02.2013 17:26 0,1 C 84 % 1015,0 hPa 0,0 l/m 6,8 km/h (2 Bft) O 90 -2,3 C -2,2 C
23.02.2013 17:31 0,1 C 84 % 1015,0 hPa 0,0 l/m 11,9 km/h (2 Bft) O-NO 67 -2,3 C -3,7 C
23.02.2013 17:36 0,1 C 84 % 1014,9 hPa 0,0 l/m 14,4 km/h (3 Bft) O-NO 67 -2,3 C -4,2 C
23.02.2013 17:41 0,1 C 84 % 1014,9 hPa 0,0 l/m 19,1 km/h (3 Bft) O-NO 67 -2,3 C -5,0 C
23.02.2013 17:46 0,1 C 84 % 1014,9 hPa 0,0 l/m 7,6 km/h (2 Bft) NO 45 -2,3 C -2,5 C
23.02.2013 17:51 0,1 C 84 % 1014,9 hPa 0,0 l/m 14,4 km/h (3 Bft) NO 45 -2,3 C -4,2 C
23.02.2013 17:56 0,1 C 84 % 1014,8 hPa 0,0 l/m 8,3 km/h (2 Bft) NO 45 -2,3 C -2,7 C
23.02.2013 18:01 0,1 C 84 % 1014,9 hPa 0,0 l/m 17,3 km/h (3 Bft) O-NO 67 -2,3 C -4,7 C
23.02.2013 18:06 0,1 C 84 % 1014,8 hPa 0,0 l/m 4,7 km/h (1 Bft) N-NO 22 -2,3 C -1,3 C
23.02.2013 18:11 0,1 C 84 % 1014,9 hPa 0,0 l/m 6,5 km/h (2 Bft) NO 45 -2,3 C -2,1 C
23.02.2013 18:16 0,1 C 84 % 1015,1 hPa 0,0 l/m 3,6 km/h (1 Bft) O-SO 112 -2,3 C 0,1 C
23.02.2013 18:21 0,1 C 83 % 1015,0 hPa 0,0 l/m 13,0 km/h (3 Bft) O-NO 67 -2,4 C -3,9 C
23.02.2013 18:26 0,1 C 83 % 1014,9 hPa 0,0 l/m 22,0 km/h (4 Bft) O-NO 67 -2,4 C -5,4 C
23.02.2013 18:31 0,2 C 82 % 1014,9 hPa 0,0 l/m 7,2 km/h (2 Bft) NO 45 -2,5 C -2,2 C
23.02.2013 18:36 0,2 C 82 % 1015,0 hPa 0,0 l/m 8,6 km/h (2 Bft) NO 45 -2,5 C -2,7 C
23.02.2013 18:41 0,2 C 82 % 1014,9 hPa 0,0 l/m 14,8 km/h (3 Bft) O-NO 67 -2,5 C -4,1 C
23.02.2013 18:46 0,2 C 82 % 1015,1 hPa 0,0 l/m 15,5 km/h (3 Bft) NO 45 -2,5 C -4,3 C
23.02.2013 18:51 0,2 C 82 % 1015,1 hPa 0,0 l/m 7,2 km/h (2 Bft) NO 45 -2,5 C -2,2 C
23.02.2013 18:56 0,2 C 82 % 1015,1 hPa 0,0 l/m 14,4 km/h (3 Bft) NO 45 -2,5 C -4,1 C
23.02.2013 19:01 0,2 C 82 % 1015,0 hPa 0,0 l/m 12,2 km/h (2 Bft) NO 45 -2,5 C -3,6 C
23.02.2013 19:06 0,2 C 82 % 1015,1 hPa 0,0 l/m 10,4 km/h (2 Bft) O 90 -2,5 C -3,2 C
23.02.2013 19:11 0,2 C 82 % 1015,2 hPa 0,0 l/m 7,6 km/h (2 Bft) O-NO 67 -2,5 C -2,4 C
23.02.2013 19:16 0,2 C 82 % 1015,2 hPa 0,0 l/m 7,6 km/h (2 Bft) N-NO 22 -2,5 C -2,4 C
23.02.2013 19:21 0,2 C 82 % 1015,3 hPa 0,0 l/m 9,0 km/h (2 Bft) NO 45 -2,5 C -2,8 C
23.02.2013 19:26 0,1 C 83 % 1015,4 hPa 0,0 l/m 12,6 km/h (3 Bft) O-NO 67 -2,4 C -3,8 C
23.02.2013 19:31 0,1 C 84 % 1015,5 hPa 0,0 l/m 10,1 km/h (2 Bft) O-NO 67 -2,3 C -3,2 C
23.02.2013 19:36 -0,1 C 84 % 1015,4 hPa 0,0 l/m 11,9 km/h (2 Bft) N-NO 22 -2,5 C -3,9 C
23.02.2013 19:41 -0,1 C 85 % 1015,4 hPa 0,0 l/m 7,9 km/h (2 Bft) NO 45 -2,3 C -2,8 C
23.02.2013 19:46 -0,1 C 85 % 1015,4 hPa 0,0 l/m 4,7 km/h (1 Bft) O-NO 67 -2,3 C -1,6 C
23.02.2013 19:51 -0,1 C 86 % 1015,4 hPa 0,0 l/m 14,0 km/h (3 Bft) O-NO 67 -2,2 C -4,3 C
23.02.2013 19:56 -0,2 C 86 % 1015,6 hPa 0,0 l/m 6,1 km/h (2 Bft) NO 45 -2,3 C -2,3 C
23.02.2013 20:01 -0,2 C 87 % 1015,6 hPa 0,0 l/m 8,3 km/h (2 Bft) O-NO 67 -2,1 C -3,1 C
23.02.2013 20:06 -0,4 C 87 % 1015,6 hPa 0,0 l/m 14,8 km/h (3 Bft) NO 45 -2,3 C -4,9 C
23.02.2013 20:11 -0,4 C 88 % 1015,5 hPa 0,0 l/m 3,2 km/h (1 Bft) O 90 -2,1 C -0,4 C
23.02.2013 20:16 -0,4 C 88 % 1015,4 hPa 0,0 l/m 5,8 km/h (2 Bft) O-NO 67 -2,1 C -2,4 C
23.02.2013 20:21 -0,4 C 88 % 1015,5 hPa 0,0 l/m 6,1 km/h (2 Bft) O-NO 67 -2,1 C -2,5 C
23.02.2013 20:26 -0,4 C 88 % 1015,5 hPa 0,0 l/m 6,1 km/h (2 Bft) O-NO 67 -2,1 C -2,5 C
23.02.2013 20:31 -0,4 C 88 % 1015,6 hPa 0,0 l/m 7,2 km/h (2 Bft) O-NO 67 -2,1 C -2,9 C
23.02.2013 20:36 -0,4 C 88 % 1015,5 hPa 0,0 l/m 6,5 km/h (2 Bft) O-NO 67 -2,1 C -2,7 C
23.02.2013 20:41 -0,5 C 89 % 1015,3 hPa 0,0 l/m 4,7 km/h (1 Bft) O-NO 67 -2,1 C -2,0 C
23.02.2013 20:46 -0,5 C 89 % 1015,3 hPa 0,0 l/m 6,1 km/h (2 Bft) O-NO 67 -2,1 C -2,6 C
23.02.2013 20:51 -0,5 C 89 % 1015,3 hPa 0,0 l/m 7,9 km/h (2 Bft) O-NO 67 -2,1 C -3,3 C
23.02.2013 20:56 -0,5 C 89 % 1015,3 hPa 0,0 l/m 2,2 km/h (1 Bft) NO 45 -2,1 C -0,5 C
23.02.2013 21:01 -0,5 C 89 % 1015,4 hPa 0,0 l/m 5,0 km/h (1 Bft) NO 45 -2,1 C -2,2 C
23.02.2013 21:06 -0,6 C 89 % 1015,3 hPa 0,0 l/m 2,5 km/h (1 Bft) O-NO 67 -2,2 C -0,6 C
23.02.2013 21:11 -0,6 C 89 % 1015,3 hPa 0,0 l/m 15,1 km/h (3 Bft) N-NO 22 -2,2 C -5,2 C
23.02.2013 21:16 -0,6 C 89 % 1015,4 hPa 0,0 l/m 6,5 km/h (2 Bft) NO 45 -2,2 C -2,9 C
23.02.2013 21:21 -0,6 C 89 % 1015,5 hPa 0,0 l/m 7,6 km/h (2 Bft) NO 45 -2,2 C -3,3 C
23.02.2013 21:26 -0,6 C 89 % 1015,4 hPa 0,0 l/m 6,8 km/h (2 Bft) N-NO 22 -2,2 C -3,0 C
23.02.2013 21:31 -0,6 C 89 % 1015,4 hPa 0,0 l/m 7,2 km/h (2 Bft) NO 45 -2,2 C -3,2 C
23.02.2013 21:36 -0,7 C 89 % 1015,5 hPa 0,0 l/m 4,0 km/h (1 Bft) O-NO 67 -2,3 C -0,7 C
23.02.2013 21:41 -0,7 C 89 % 1015,4 hPa 0,0 l/m 9,4 km/h (2 Bft) O-NO 67 -2,3 C -4,0 C
23.02.2013 21:46 -0,7 C 90 % 1015,3 hPa 0,0 l/m 4,3 km/h (1 Bft) O-NO 67 -2,1 C -0,7 C
23.02.2013 21:51 -0,7 C 90 % 1015,3 hPa 0,0 l/m 4,3 km/h (1 Bft) NO 45 -2,1 C -0,7 C
23.02.2013 21:56 -0,7 C 90 % 1015,4 hPa 0,0 l/m 4,7 km/h (1 Bft) N-NW 337 -2,1 C -2,2 C
23.02.2013 22:01 -0,7 C 90 % 1015,5 hPa 0,0 l/m 8,3 km/h (2 Bft) NO 45 -2,1 C -3,7 C
23.02.2013 22:06 -0,7 C 90 % 1015,6 hPa 0,0 l/m 2,9 km/h (1 Bft) NO 45 -2,1 C -0,7 C
23.02.2013 22:11 -0,7 C 89 % 1015,4 hPa 0,0 l/m 18,0 km/h (3 Bft) O-NO 67 -2,3 C -5,8 C
23.02.2013 22:16 -0,7 C 89 % 1015,4 hPa 0,0 l/m 5,4 km/h (1 Bft) NO 45 -2,3 C -2,6 C
23.02.2013 22:21 -0,7 C 89 % 1015,6 hPa 0,0 l/m 15,5 km/h (3 Bft) O-NO 67 -2,3 C -5,4 C
23.02.2013 22:26 -0,7 C 89 % 1015,6 hPa 0,0 l/m 4,7 km/h (1 Bft) NO 45 -2,3 C -2,2 C
23.02.2013 22:31 -0,7 C 89 % 1015,6 hPa 0,0 l/m 4,3 km/h (1 Bft) O-SO 112 -2,3 C -0,7 C
23.02.2013 22:36 -0,7 C 89 % 1015,6 hPa 0,0 l/m 6,5 km/h (2 Bft) NO 45 -2,3 C -3,0 C
23.02.2013 22:41 -0,7 C 90 % 1015,5 hPa 0,0 l/m 10,4 km/h (2 Bft) O 90 -2,1 C -4,3 C
23.02.2013 22:46 -0,7 C 90 % 1015,6 hPa 0,0 l/m 3,2 km/h (1 Bft) O-NO 67 -2,1 C -0,7 C
23.02.2013 22:51 -0,7 C 90 % 1015,6 hPa 0,0 l/m 7,9 km/h (2 Bft) O-NO 67 -2,1 C -3,5 C
23.02.2013 22:56 -0,7 C 90 % 1015,6 hPa 0,0 l/m 4,3 km/h (1 Bft) NO 45 -2,1 C -0,7 C
23.02.2013 23:01 -0,7 C 90 % 1015,6 hPa 0,0 l/m 5,0 km/h (1 Bft) O-NO 67 -2,1 C -2,4 C
23.02.2013 23:06 -0,7 C 90 % 1015,7 hPa 0,0 l/m 11,2 km/h (2 Bft) O-NO 67 -2,1 C -4,5 C
23.02.2013 23:11 -0,7 C 90 % 1015,7 hPa 0,0 l/m 4,0 km/h (1 Bft) N-NO 22 -2,1 C -0,7 C
23.02.2013 23:16 -0,7 C 90 % 1015,5 hPa 0,0 l/m 6,1 km/h (2 Bft) O-NO 67 -2,1 C -2,9 C
23.02.2013 23:21 -0,8 C 90 % 1015,6 hPa 0,0 l/m 9,4 km/h (2 Bft) NO 45 -2,2 C -4,1 C
23.02.2013 23:26 -0,8 C 90 % 1015,7 hPa 0,0 l/m 5,4 km/h (1 Bft) O-NO 67 -2,2 C -2,7 C
23.02.2013 23:31 -0,8 C 90 % 1015,7 hPa 0,0 l/m 7,6 km/h (2 Bft) NO 45 -2,2 C -3,5 C
23.02.2013 23:36 -0,8 C 90 % 1015,5 hPa 0,0 l/m 5,0 km/h (1 Bft) NO 45 -2,2 C -2,5 C
23.02.2013 23:41 -0,8 C 90 % 1015,6 hPa 0,0 l/m 4,7 km/h (1 Bft) NO 45 -2,2 C -2,3 C
23.02.2013 23:46 -0,8 C 91 % 1015,4 hPa 0,0 l/m 12,6 km/h (3 Bft) O-NO 67 -2,1 C -4,9 C
23.02.2013 23:51 -0,8 C 91 % 1015,5 hPa 0,0 l/m 9,7 km/h (2 Bft) N-NO 22 -2,1 C -4,2 C
23.02.2013 23:56 -0,9 C 91 % 1015,3 hPa 0,0 l/m 4,7 km/h (1 Bft) O-SO 112 -2,2 C -2,5 C
_ Min-Zeit 02:51 12:06 17:56 - 00:36 - - 02:51 02:51
Minimum _ -4,6 C 79 % 1014,8 hPa - 1,8 km/h (1 Bft) - - -7,2 C -10,6 C
_ Max-Zeit 18:31 23:46 00:06 00:01 14:26 - - 23:46 18:16
Maximum _ 0,2 C 91 % 1019,7 hPa 0,0 l/m 27,0 km/h
O-NO (4 Bft)
- - -2,1 C 0,1 C
Durchschnitt _ -2,1 C 83 % 1017,0 hPa #0,0 l/m 9,8 km/h (2 Bft) O-NO - -4,6 C -5,4 C
(c) by David Heller